Barcelona, Spain

03:08 AM CEST on avgust 27, 2016 (GMT +0200)
Avenida doctor Gallart i Mones, | | Change Station

Viš 13 ft 41.32 °N, 2.09 °E | Updated 37 seconds ago

Partly Cloudy
Delno oblacno
69.4 °F
Feels Like 69.4 °F
N
4.0
Veter Spremenljivo Veter od ZJZ
Gusts 7.0 mph

Danes
High -- | Low -- °F
--% Chance of Precip.
Yesterday
High -- | Low -- °F
Precip. -- v
Zračni tlak 30.09 v
Vidljivost 6.2 milje
Oblaki Few 2500 ft
Rosišče 62 °F
Vlažnost 76%
Padavine 0.00 v
Snow Depth Not available.
7:13 AM 8:32 PM
Pojemajoči krajec, 29% visible
METAR LEBL 270100Z 31006KT 9999 FEW025 21/16 Q1019 NOSIG
Zračni tlak 30.09 v
Vidljivost 6.2 milje
Oblaki Few 2500 ft
Rosišče 62 °F
Vlažnost 76%
Padavine 0.00 v
Snow Depth Not available.
7:13 AM 8:32 PM
Pojemajoči krajec, 29% visible
METAR LEBL 270100Z 31006KT 9999 FEW025 21/16 Q1019 NOSIG

10-Day Weather Forecast

×

Almanac

Astronomija

Aug. 27, 2016 Rise Set
Actual Time
Civil Twilight
Nautical Twilight
Astronomical Twilight
Moon
Length Of Visible Light
Dolžina dneva
Tomorrow will be .
, % of the Moon is Illuminated

Današnji ekstremi

Country Highs Country Lows

Community

WunderPhotos

Upload Photos

1,935,261 photos uploaded!

WunderBlog® & News

Nearby

Air Quality

  Air Quality AQ Index Pollutant
Not available.

Snow Depth

Station Depth Višina

Earthquake Activity

City Distance Mag. Time & Date
Minimum magnitude displayed is 2.5.

Coastal Water Temperatures

Mesto Temperatura

Stations

Nearby Weather Stations

Station Location Temp Občutek zaradi vetra Rosišče Vlažnost Veter Precip. Viš Obnovljeno Type